Terminal Aerodrome Forecast
Issued by NWS Cheyenne, WY

Home | Current Version | Previous Version | Text Only | Print | Product List | Glossary On
Versions: 1 2 3 4 5 6 7 8 9 10 11 12 13 14 15 16 17 18 19 20
000
FTUS45 KCYS 010520
TAFCYS
TAF
KCYS 010520Z 0106/0206 05005KT P6SM SKC
     FM010900 13006KT P6SM SCT015
     FM011500 18008KT P6SM BKN090
     FM011900 14010G20KT P6SM VCSH BKN090
     FM020200 22007KT P6SM SCT090=

USA.gov is the U.S. government's official web portal to all federal, state and local government web resources and services.